createdAt,value
2022-11-17T00:01:21.234Z,4.83
2022-11-17T00:03:49.088Z,4.37
2022-11-17T00:06:16.605Z,4.40
2022-11-17T00:08:43.209Z,5.10
2022-11-17T00:11:09.705Z,3.70
2022-11-17T00:13:55.050Z,3.40
2022-11-17T00:16:21.873Z,4.50
2022-11-17T00:19:07.720Z,4.20
2022-11-17T00:21:34.316Z,3.53
2022-11-17T00:24:01.029Z,4.03
2022-11-17T00:26:32.391Z,4.40
2022-11-17T00:29:04.601Z,3.90
2022-11-17T00:31:52.385Z,4.20
2022-11-17T00:34:20.944Z,5.10
2022-11-17T00:36:52.353Z,3.97
2022-11-17T00:39:20.829Z,5.00
2022-11-17T00:41:47.693Z,4.33
2022-11-17T00:44:14.522Z,4.80
2022-11-17T00:46:41.627Z,3.57
2022-11-17T00:49:09.354Z,3.27
2022-11-17T00:51:36.490Z,4.37
2022-11-17T00:54:04.446Z,4.17
2022-11-17T00:56:31.244Z,4.50
2022-11-17T00:58:57.993Z,4.00
2022-11-17T01:01:24.758Z,4.37
2022-11-17T01:03:51.492Z,5.20
2022-11-17T01:06:19.840Z,4.17
2022-11-17T01:08:46.518Z,4.60
2022-11-17T01:11:18.238Z,4.20
2022-11-17T01:13:47.163Z,4.63
2022-11-17T01:16:16.068Z,4.70
2022-11-17T01:18:43.601Z,4.10
2022-11-17T01:21:15.809Z,4.43
2022-11-17T01:23:43.811Z,4.00
2022-11-17T01:26:12.947Z,4.80
2022-11-17T01:28:40.217Z,4.23
2022-11-17T01:31:10.663Z,3.10
2022-11-17T01:33:37.609Z,3.20
2022-11-17T01:36:07.168Z,3.47
2022-11-17T01:38:34.015Z,3.13
2022-11-17T01:41:01.885Z,4.13
2022-11-17T01:43:58.530Z,4.10
2022-11-17T01:46:37.381Z,4.47
2022-11-17T01:49:12.982Z,3.97
2022-11-17T01:51:42.944Z,4.20
2022-11-17T01:54:11.004Z,3.80
2022-11-17T01:56:40.278Z,4.97
2022-11-17T01:59:09.865Z,3.80
2022-11-17T02:01:55.599Z,3.73
2022-11-17T02:04:26.024Z,3.80
2022-11-17T02:06:57.530Z,3.77
2022-11-17T02:09:24.955Z,4.00
2022-11-17T02:11:51.489Z,3.93
2022-11-17T02:14:18.042Z,4.50
2022-11-17T02:16:44.649Z,3.73
2022-11-17T02:19:12.065Z,3.30
2022-11-17T02:22:06.096Z,3.20
2022-11-17T02:24:58.803Z,4.37
2022-11-17T02:27:55.434Z,3.97
2022-11-17T02:30:22.773Z,3.90
2022-11-17T02:33:07.405Z,3.43
2022-11-17T02:35:50.435Z,4.23
2022-11-17T02:38:42.796Z,3.10
2022-11-17T02:41:38.129Z,3.33
2022-11-17T02:44:11.408Z,3.70
2022-11-17T02:46:44.823Z,3.40
2022-11-17T02:49:20.786Z,3.13
2022-11-17T02:51:50.936Z,3.50
2022-11-17T02:54:18.071Z,3.03
2022-11-17T02:56:44.711Z,3.20
2022-11-17T02:59:13.612Z,3.30
2022-11-17T03:02:05.798Z,3.40
2022-11-17T03:04:54.118Z,3.57
2022-11-17T03:07:27.170Z,3.67
2022-11-17T03:10:31.657Z,3.43
2022-11-17T03:13:29.295Z,3.43
2022-11-17T03:16:08.632Z,3.43
2022-11-17T03:18:59.780Z,3.57
2022-11-17T03:21:29.599Z,3.80
2022-11-17T03:24:13.019Z,2.77
2022-11-17T03:26:44.505Z,3.00
2022-11-17T03:29:13.689Z,3.43
2022-11-17T03:31:41.585Z,3.47
2022-11-17T03:34:10.968Z,3.00
2022-11-17T03:36:40.684Z,2.87
2022-11-17T03:39:15.693Z,3.40
2022-11-17T03:41:46.259Z,2.90
2022-11-17T03:44:14.983Z,3.10
2022-11-17T03:46:43.197Z,3.00
2022-11-17T03:49:24.289Z,2.97
2022-11-17T03:51:50.810Z,2.50
2022-11-17T03:54:17.543Z,3.43
2022-11-17T03:57:04.986Z,2.70
2022-11-17T03:59:54.078Z,3.50
2022-11-17T04:02:22.326Z,3.73
2022-11-17T04:05:07.079Z,3.13
2022-11-17T04:07:41.520Z,3.90
2022-11-17T04:10:10.999Z,2.93
2022-11-17T04:12:56.618Z,2.93
2022-11-17T04:15:41.646Z,3.33
2022-11-17T04:18:08.132Z,3.13
2022-11-17T04:20:37.883Z,4.00
2022-11-17T04:23:09.237Z,3.97
2022-11-17T04:26:04.978Z,3.40
2022-11-17T04:28:39.072Z,3.23
2022-11-17T04:31:20.798Z,3.10
2022-11-17T04:33:49.739Z,3.10
2022-11-17T04:36:18.468Z,3.00
2022-11-17T04:38:47.160Z,3.03
2022-11-17T04:41:33.779Z,3.27
2022-11-17T04:44:01.108Z,3.20
2022-11-17T04:46:29.549Z,4.13
2022-11-17T04:48:56.951Z,3.90
2022-11-17T04:51:24.347Z,3.27
2022-11-17T04:53:51.499Z,3.07
2022-11-17T04:56:22.011Z,3.37
2022-11-17T04:58:48.686Z,3.30
2022-11-17T05:01:17.509Z,3.50
2022-11-17T05:03:49.630Z,2.90
2022-11-17T05:06:18.982Z,3.30
2022-11-17T05:08:45.895Z,3.23
2022-11-17T05:11:32.096Z,2.90
2022-11-17T05:13:58.955Z,3.30
2022-11-17T05:16:49.107Z,3.43
2022-11-17T05:19:19.091Z,3.23
2022-11-17T05:21:45.674Z,2.90
2022-11-17T05:24:14.331Z,3.07
2022-11-17T05:26:42.068Z,3.40
2022-11-17T05:29:09.591Z,3.93
2022-11-17T05:31:36.581Z,3.27
2022-11-17T05:34:04.779Z,3.20
2022-11-17T05:36:31.584Z,3.70
2022-11-17T05:38:58.179Z,4.27
2022-11-17T05:41:24.738Z,3.30
2022-11-17T05:43:51.525Z,3.00
2022-11-17T05:46:19.749Z,2.80
2022-11-17T05:48:48.719Z,3.00
2022-11-17T05:51:15.562Z,3.00
2022-11-17T05:53:42.021Z,3.47
2022-11-17T05:56:08.576Z,3.37
2022-11-17T05:58:36.995Z,3.10
2022-11-17T06:01:04.006Z,2.93
2022-11-17T06:03:35.004Z,2.83
2022-11-17T06:06:01.627Z,4.43
2022-11-17T06:08:29.253Z,3.43
2022-11-17T06:10:56.019Z,4.30
2022-11-17T06:13:29.228Z,3.20
2022-11-17T06:15:58.570Z,3.70
2022-11-17T06:18:30.703Z,3.23
2022-11-17T06:20:57.221Z,3.70
2022-11-17T06:23:26.756Z,4.20
2022-11-17T06:25:53.322Z,3.37
2022-11-17T06:28:21.126Z,3.70
2022-11-17T06:30:48.309Z,4.10
2022-11-17T06:33:16.082Z,3.40
2022-11-17T06:35:43.146Z,3.90
2022-11-17T06:38:09.561Z,3.40
2022-11-17T06:40:36.135Z,4.60
2022-11-17T06:43:09.490Z,4.73
2022-11-17T06:45:38.301Z,3.60
2022-11-17T06:48:05.981Z,3.07
2022-11-17T06:50:32.934Z,3.37
2022-11-17T06:53:00.717Z,3.30
2022-11-17T06:55:27.981Z,3.87
2022-11-17T06:58:09.183Z,3.37
2022-11-17T07:00:36.522Z,3.67
2022-11-17T07:03:04.946Z,3.20
2022-11-17T07:05:32.567Z,3.97
2022-11-17T07:08:00.222Z,3.30
2022-11-17T07:10:30.821Z,3.50
2022-11-17T07:12:57.670Z,2.80
2022-11-17T07:15:24.561Z,3.90
2022-11-17T07:17:51.140Z,3.90
2022-11-17T07:20:18.408Z,3.10
2022-11-17T07:22:45.436Z,2.80
2022-11-17T07:25:12.449Z,3.10
2022-11-17T07:27:39.226Z,2.50
2022-11-17T07:30:06.637Z,3.00
2022-11-17T07:32:34.179Z,2.50
2022-11-17T07:35:02.173Z,2.53
2022-11-17T07:37:33.544Z,2.97
2022-11-17T07:40:00.754Z,2.73
2022-11-17T07:42:27.524Z,3.23
2022-11-17T07:44:54.230Z,2.90
2022-11-17T07:47:20.777Z,2.93
2022-11-17T07:49:47.353Z,3.17
2022-11-17T07:52:13.981Z,2.77
2022-11-17T07:54:40.687Z,2.90
2022-11-17T07:57:07.220Z,2.73
2022-11-17T07:59:33.850Z,2.93
2022-11-17T08:02:00.345Z,3.33
2022-11-17T08:04:26.952Z,3.30
2022-11-17T08:06:53.628Z,2.47
2022-11-17T08:09:20.366Z,2.70
2022-11-17T08:11:47.028Z,2.90
2022-11-17T08:14:13.524Z,3.33
2022-11-17T08:16:40.042Z,4.40
2022-11-17T08:19:06.829Z,3.40
2022-11-17T08:21:33.430Z,3.70
2022-11-17T08:24:00.318Z,2.67
2022-11-17T08:26:26.821Z,2.53
2022-11-17T08:28:58.133Z,3.03
2022-11-17T08:31:25.427Z,2.90
2022-11-17T08:33:51.963Z,2.70
2022-11-17T08:36:18.425Z,3.30
2022-11-17T08:38:45.149Z,2.50
2022-11-17T08:41:12.296Z,3.00
2022-11-17T08:43:38.851Z,3.07
2022-11-17T08:46:05.624Z,2.50
2022-11-17T08:48:33.374Z,2.50
2022-11-17T08:51:05.474Z,2.70
2022-11-17T08:53:31.982Z,2.90
2022-11-17T08:55:58.524Z,2.40
2022-11-17T08:58:25.252Z,2.77
2022-11-17T09:00:51.816Z,2.93
2022-11-17T09:03:18.456Z,3.07
2022-11-17T09:05:47.124Z,3.33
2022-11-17T09:11:10.615Z,3.60
2022-11-17T09:13:37.962Z,3.20
2022-11-17T09:16:09.399Z,2.87
2022-11-17T09:18:38.586Z,3.60
2022-11-17T09:21:07.789Z,2.97
2022-11-17T09:23:35.190Z,2.97
2022-11-17T09:26:06.956Z,3.60
2022-11-17T09:28:33.820Z,3.23
2022-11-17T09:31:09.354Z,2.90
2022-11-17T09:33:36.021Z,3.80
2022-11-17T09:36:03.161Z,3.43
2022-11-17T09:38:29.829Z,2.93
2022-11-17T09:40:58.460Z,3.50
2022-11-17T09:43:31.222Z,3.43
2022-11-17T09:46:06.124Z,2.80
2022-11-17T09:48:45.744Z,3.27
2022-11-17T09:51:16.269Z,3.70
2022-11-17T09:53:48.893Z,2.87
2022-11-17T09:56:15.514Z,3.07
2022-11-17T09:58:50.129Z,2.37
2022-11-17T10:01:18.539Z,3.20
2022-11-17T10:03:47.853Z,2.93
2022-11-17T10:06:17.975Z,2.87
2022-11-17T10:09:04.659Z,2.73
2022-11-17T10:11:37.602Z,2.47
2022-11-17T10:14:16.152Z,2.30
2022-11-17T10:16:56.939Z,2.50
2022-11-17T10:19:26.457Z,2.80
2022-11-17T10:22:02.255Z,3.20
2022-11-17T10:24:34.855Z,2.50
2022-11-17T10:27:07.188Z,2.70
2022-11-17T10:29:33.830Z,2.27
2022-11-17T10:32:04.085Z,2.27
2022-11-17T10:34:41.333Z,2.87
2022-11-17T10:37:15.738Z,3.10
2022-11-17T10:39:43.698Z,2.93
2022-11-17T10:42:28.171Z,2.20
2022-11-17T10:44:58.082Z,2.23
2022-11-17T10:47:40.715Z,2.27
2022-11-17T10:50:25.894Z,2.57
2022-11-17T10:52:54.985Z,2.20
2022-11-17T10:55:27.767Z,2.20
2022-11-17T10:58:27.148Z,2.20
2022-11-17T11:00:59.245Z,2.10
2022-11-17T11:03:36.476Z,2.13
2022-11-17T11:06:24.660Z,2.40
2022-11-17T11:08:55.954Z,3.70
2022-11-17T11:11:37.126Z,2.63
2022-11-17T11:14:28.261Z,2.67
2022-11-17T11:16:55.689Z,2.10
2022-11-17T11:19:22.944Z,2.63
2022-11-17T11:22:27.626Z,3.33
2022-11-17T11:25:18.952Z,2.40
2022-11-17T11:27:49.717Z,2.40
2022-11-17T11:30:18.511Z,2.77
2022-11-17T11:33:05.963Z,2.90
2022-11-17T11:36:15.356Z,2.33
2022-11-17T11:38:57.317Z,3.10
2022-11-17T11:41:49.369Z,3.17
2022-11-17T11:44:15.988Z,2.77
2022-11-17T11:46:51.557Z,2.20
2022-11-17T11:49:27.422Z,2.90
2022-11-17T11:51:54.143Z,2.27
2022-11-17T11:54:59.384Z,2.90
2022-11-17T11:57:37.485Z,3.10
2022-11-17T12:00:14.766Z,2.70
2022-11-17T12:02:51.647Z,2.70
2022-11-17T12:05:37.039Z,2.87
2022-11-17T12:08:15.701Z,2.67
2022-11-17T12:10:47.086Z,3.10
2022-11-17T12:13:15.036Z,2.73
2022-11-17T12:15:41.745Z,2.37
2022-11-17T12:18:31.659Z,3.00
2022-11-17T12:21:25.175Z,2.77
2022-11-17T12:23:57.678Z,2.83
2022-11-17T12:26:32.078Z,2.40
2022-11-17T12:29:20.094Z,2.57
2022-11-17T12:32:00.541Z,2.63
2022-11-17T12:34:34.137Z,2.17
2022-11-17T12:37:18.616Z,2.37
2022-11-17T12:39:51.316Z,2.27
2022-11-17T12:42:17.805Z,2.37
2022-11-17T12:44:47.354Z,3.03
2022-11-17T12:47:15.197Z,3.20
2022-11-17T12:49:48.636Z,2.40
2022-11-17T12:52:23.039Z,2.70
2022-11-17T12:55:03.831Z,3.03
2022-11-17T12:57:32.647Z,2.87
2022-11-17T13:00:05.508Z,2.47
2022-11-17T13:03:05.299Z,2.70
2022-11-17T13:05:31.863Z,2.47
2022-11-17T13:08:15.064Z,2.70
2022-11-17T13:10:41.828Z,2.60
2022-11-17T13:13:23.632Z,2.60
2022-11-17T13:15:58.945Z,2.67
2022-11-17T13:18:28.454Z,2.43
2022-11-17T13:20:54.929Z,2.67
2022-11-17T13:23:26.678Z,3.23
2022-11-17T13:26:20.618Z,3.70
2022-11-17T13:28:48.044Z,3.20
2022-11-17T13:31:23.954Z,2.80
2022-11-17T13:34:26.081Z,2.57
2022-11-17T13:36:53.314Z,3.43
2022-11-17T13:39:25.781Z,3.50
2022-11-17T13:41:54.414Z,3.23
2022-11-17T13:44:23.869Z,2.87
2022-11-17T13:46:50.368Z,2.80
2022-11-17T13:49:36.369Z,3.33
2022-11-17T13:52:04.029Z,3.10
2022-11-17T13:54:30.955Z,3.50
2022-11-17T13:57:07.943Z,3.40
2022-11-17T13:59:36.621Z,3.37
2022-11-17T14:02:15.081Z,2.80
2022-11-17T14:04:42.378Z,3.70
2022-11-17T14:07:10.470Z,4.30
2022-11-17T14:09:37.162Z,4.23
2022-11-17T14:12:11.056Z,3.20
2022-11-17T14:14:42.986Z,3.27
2022-11-17T14:17:20.598Z,3.17
2022-11-17T14:19:48.115Z,3.40
2022-11-17T14:22:21.522Z,3.00
2022-11-17T14:24:51.801Z,3.43
2022-11-17T14:27:27.403Z,3.20
2022-11-17T14:29:53.973Z,3.60
2022-11-17T14:32:20.448Z,3.83
2022-11-17T14:34:47.154Z,2.97
2022-11-17T14:37:13.865Z,3.23
2022-11-17T14:39:40.367Z,3.80
2022-11-17T14:42:06.901Z,4.50
2022-11-17T14:44:33.423Z,4.60
2022-11-17T14:46:59.906Z,5.93
2022-11-17T14:49:26.521Z,6.60
2022-11-17T14:51:55.445Z,6.07
2022-11-17T14:54:22.355Z,5.10
2022-11-17T14:56:48.913Z,4.77
2022-11-17T14:59:16.499Z,7.07
2022-11-17T15:01:43.533Z,7.00
2022-11-17T15:04:42.818Z,4.90
2022-11-17T15:07:01.468Z,6.03
2022-11-17T15:09:28.119Z,8.23
2022-11-17T15:11:54.584Z,6.80
2022-11-17T15:14:21.240Z,6.00
2022-11-17T15:16:48.254Z,7.00
2022-11-17T15:19:14.823Z,7.50
2022-11-17T15:21:41.465Z,6.83
2022-11-17T15:24:09.229Z,5.33
2022-11-17T15:26:36.453Z,7.70
2022-11-17T15:29:03.098Z,7.30
2022-11-17T15:31:29.876Z,6.40
2022-11-17T15:33:56.381Z,6.37
2022-11-17T15:36:23.402Z,6.27
2022-11-17T15:38:50.047Z,5.60
2022-11-17T15:41:16.765Z,5.20
2022-11-17T15:43:44.398Z,5.03
2022-11-17T15:46:18.495Z,4.40
2022-11-17T15:48:46.822Z,3.83
2022-11-17T15:51:18.605Z,5.63
2022-11-17T15:53:46.573Z,4.33
2022-11-17T15:56:43.005Z,7.43
2022-11-17T15:59:10.825Z,5.20
2022-11-17T16:01:38.958Z,4.87
2022-11-17T16:04:10.562Z,6.00
2022-11-17T16:06:39.241Z,7.00
2022-11-17T16:09:09.026Z,6.63
2022-11-17T16:11:36.241Z,8.23
2022-11-17T16:14:03.412Z,7.17
2022-11-17T16:16:35.803Z,6.90
2022-11-17T16:19:02.742Z,5.37
2022-11-17T16:21:30.597Z,4.93
2022-11-17T16:23:57.832Z,5.60
2022-11-17T16:26:26.079Z,6.00
2022-11-17T16:29:10.810Z,4.13
2022-11-17T16:31:38.112Z,4.23
2022-11-17T16:34:13.157Z,4.70
2022-11-17T16:36:42.448Z,4.53
2022-11-17T16:39:12.418Z,3.80
2022-11-17T16:41:40.482Z,3.87
2022-11-17T16:44:09.442Z,3.93
2022-11-17T16:46:36.186Z,4.73
2022-11-17T16:49:07.346Z,4.20
2022-11-17T16:51:34.187Z,4.27
2022-11-17T16:54:09.869Z,4.07
2022-11-17T16:56:36.521Z,4.60
2022-11-17T16:59:03.481Z,4.53
2022-11-17T17:01:32.323Z,5.00
2022-11-17T17:04:00.673Z,5.30
2022-11-17T17:06:27.574Z,4.70
2022-11-17T17:08:55.745Z,4.33
2022-11-17T17:11:22.582Z,3.87
2022-11-17T17:13:49.249Z,3.40
2022-11-17T17:16:20.017Z,3.03
2022-11-17T17:18:46.794Z,3.57
2022-11-17T17:21:15.780Z,4.30
2022-11-17T17:23:42.841Z,4.93
2022-11-17T17:26:16.657Z,4.30
2022-11-17T17:28:44.799Z,5.47
2022-11-17T17:31:16.688Z,5.60
2022-11-17T17:33:46.445Z,4.80
2022-11-17T17:36:16.578Z,5.90
2022-11-17T17:38:43.489Z,8.90
2022-11-17T17:41:12.166Z,5.50
2022-11-17T17:43:39.566Z,3.93
2022-11-17T17:46:15.409Z,5.50
2022-11-17T17:48:44.024Z,5.20
2022-11-17T17:51:14.177Z,6.87
2022-11-17T17:53:41.477Z,6.07
2022-11-17T17:56:10.023Z,4.43
2022-11-17T17:58:40.600Z,4.47
2022-11-17T18:01:11.372Z,4.07
2022-11-17T18:03:38.735Z,4.30
2022-11-17T18:06:05.704Z,4.37
2022-11-17T18:08:36.167Z,4.40
2022-11-17T18:11:04.417Z,3.60
2022-11-17T18:13:35.345Z,3.97
2022-11-17T18:16:06.945Z,5.77
2022-11-17T18:18:34.411Z,5.43
2022-11-17T18:21:06.307Z,6.17
2022-11-17T18:23:36.184Z,4.40
2022-11-17T18:26:18.325Z,4.33
2022-11-17T18:28:50.589Z,4.17
2022-11-17T18:31:17.145Z,3.43
2022-11-17T18:33:45.322Z,3.47
2022-11-17T18:36:12.102Z,4.07
2022-11-17T18:38:38.904Z,4.07
2022-11-17T18:41:10.211Z,4.73
2022-11-17T18:43:37.442Z,3.97
2022-11-17T18:46:06.311Z,3.30
2022-11-17T18:48:34.091Z,2.93
2022-11-17T18:51:18.574Z,4.20
2022-11-17T18:53:46.409Z,3.47
2022-11-17T18:56:14.777Z,3.90
2022-11-17T18:58:42.218Z,3.70
2022-11-17T19:01:10.244Z,4.23
2022-11-17T19:03:37.873Z,3.70
2022-11-17T19:06:05.724Z,4.50
2022-11-17T19:08:33.708Z,3.70
2022-11-17T19:11:05.724Z,4.40
2022-11-17T19:13:34.497Z,4.43
2022-11-17T19:16:09.054Z,3.70
2022-11-17T19:18:36.223Z,4.30
2022-11-17T19:21:04.622Z,3.60
2022-11-17T19:23:35.764Z,7.30
2022-11-17T19:26:07.106Z,5.93
2022-11-17T19:28:33.695Z,4.00
2022-11-17T19:31:06.495Z,5.13
2022-11-17T19:33:34.787Z,4.37
2022-11-17T19:36:08.500Z,3.80
2022-11-17T19:38:37.961Z,5.83
2022-11-17T19:41:15.112Z,5.13
2022-11-17T19:43:45.355Z,5.10
2022-11-17T19:46:17.211Z,13.10
2022-11-17T19:48:44.605Z,8.43
2022-11-17T19:51:14.060Z,5.53
2022-11-17T19:53:41.081Z,6.50
2022-11-17T19:56:08.253Z,6.00
2022-11-17T19:58:34.949Z,4.77
2022-11-17T20:01:08.647Z,4.90
2022-11-17T20:03:35.685Z,4.87
2022-11-17T20:06:02.386Z,4.30
2022-11-17T20:08:29.858Z,3.60
2022-11-17T20:11:07.131Z,3.30
2022-11-17T20:13:33.857Z,3.70
2022-11-17T20:16:00.971Z,4.00
2022-11-17T20:18:29.923Z,3.60
2022-11-17T20:20:56.943Z,3.47
2022-11-17T20:23:23.752Z,3.10
2022-11-17T20:25:50.225Z,3.87
2022-11-17T20:28:17.075Z,4.97
2022-11-17T20:30:43.651Z,4.30
2022-11-17T20:33:10.290Z,4.50
2022-11-17T20:35:39.421Z,3.30
2022-11-17T20:38:06.003Z,4.90
2022-11-17T20:40:32.580Z,3.60
2022-11-17T20:42:59.130Z,2.70
2022-11-17T20:45:25.904Z,4.50
2022-11-17T20:47:52.429Z,3.10
2022-11-17T20:50:18.989Z,3.93
2022-11-17T20:52:45.456Z,3.47
2022-11-17T20:55:12.036Z,3.03
2022-11-17T20:57:38.656Z,3.67
2022-11-17T21:00:05.771Z,3.70
2022-11-17T21:02:32.329Z,3.67
2022-11-17T21:04:58.874Z,4.00
2022-11-17T21:07:25.424Z,4.53
2022-11-17T21:09:51.931Z,4.80
2022-11-17T21:12:18.632Z,3.80
2022-11-17T21:14:45.283Z,3.50
2022-11-17T21:17:31.926Z,3.33
2022-11-17T21:19:58.635Z,3.07
2022-11-17T21:22:25.125Z,3.80
2022-11-17T21:24:51.685Z,3.27
2022-11-17T21:27:19.962Z,4.03
2022-11-17T21:29:47.001Z,3.90
2022-11-17T21:32:13.569Z,4.13
2022-11-17T21:34:40.275Z,3.77
2022-11-17T21:37:06.761Z,3.33
2022-11-17T21:39:33.475Z,4.80
2022-11-17T21:42:00.086Z,5.53
2022-11-17T21:44:27.797Z,4.97
2022-11-17T21:46:54.398Z,4.00
2022-11-17T21:49:20.962Z,4.50
2022-11-17T21:51:47.478Z,4.70
2022-11-17T21:54:14.157Z,6.40
2022-11-17T21:56:40.872Z,4.60
2022-11-17T21:59:11.734Z,5.37
2022-11-17T22:01:39.718Z,3.50
2022-11-17T22:04:06.676Z,3.47
2022-11-17T22:06:33.818Z,4.50
2022-11-17T22:09:00.499Z,4.70
2022-11-17T22:11:35.694Z,4.17
2022-11-17T22:14:02.621Z,4.00
2022-11-17T22:16:29.224Z,3.70
2022-11-17T22:18:55.766Z,4.13
2022-11-17T22:21:22.260Z,4.77
2022-11-17T22:23:48.857Z,4.20
2022-11-17T22:26:15.317Z,5.07
2022-11-17T22:28:41.819Z,5.03
2022-11-17T22:31:09.693Z,5.00
2022-11-17T22:33:39.986Z,4.90
2022-11-17T22:36:06.812Z,4.60
2022-11-17T22:38:33.505Z,4.63
2022-11-17T22:41:03.945Z,4.20
2022-11-17T22:43:30.705Z,4.30
2022-11-17T22:45:57.774Z,4.50
2022-11-17T22:48:24.291Z,4.80
2022-11-17T22:50:50.810Z,4.97
2022-11-17T22:53:17.256Z,4.73
2022-11-17T22:55:44.797Z,6.00
2022-11-17T22:58:11.295Z,4.60
2022-11-17T23:00:37.765Z,5.70
2022-11-17T23:03:04.498Z,4.63
2022-11-17T23:05:31.653Z,4.17
2022-11-17T23:07:58.427Z,3.60
2022-11-17T23:10:25.090Z,4.20
2022-11-17T23:12:51.853Z,3.60
2022-11-17T23:15:18.765Z,3.90
2022-11-17T23:17:45.373Z,3.83
2022-11-17T23:20:12.132Z,3.83
2022-11-17T23:22:38.737Z,3.37
2022-11-17T23:25:05.672Z,3.00
2022-11-17T23:27:32.204Z,2.67
2022-11-17T23:29:58.677Z,2.53
2022-11-17T23:32:25.268Z,3.07
2022-11-17T23:34:51.891Z,2.97
2022-11-17T23:37:18.476Z,3.93
2022-11-17T23:39:44.952Z,3.70
2022-11-17T23:42:11.475Z,3.33
2022-11-17T23:44:37.987Z,3.30
2022-11-17T23:47:04.608Z,4.20
2022-11-17T23:49:31.445Z,3.30
2022-11-17T23:51:58.041Z,3.47
2022-11-17T23:54:24.602Z,3.30
2022-11-17T23:56:53.225Z,3.07
2022-11-17T23:59:20.980Z,4.03
